Time,TemperatureF,DewpointF,PressureIn,WindDirection,WindDirectionDegrees,WindSpeedMPH,WindSpeedGustMPH,Humidity,HourlyPrecipIn,Conditions,Clouds,dailyrainin,SoftwareType,DateUTC
2013-03-23 00:00:00,48.2,36.2,30.03,WSW,255,0.0,0.0,63,0.00,,---,0.00,VWS V14.01,2013-03-23 04:00:00,
2013-03-23 00:05:00,48.2,36.2,30.03,WSW,255,0.0,0.0,63,0.00,,---,0.00,VWS V14.01,2013-03-23 04:05:00,
2013-03-23 00:10:00,48.2,36.2,30.03,WSW,255,0.0,0.0,63,0.00,,---,0.00,VWS V14.01,2013-03-23 04:10:00,
2013-03-23 00:15:00,48.2,36.2,30.03,WSW,255,0.0,0.0,63,0.00,,---,0.00,VWS V14.01,2013-03-23 04:15:00,
2013-03-23 00:20:00,48.2,36.2,30.03,WSW,255,0.0,0.0,63,0.00,,---,0.00,VWS V14.01,2013-03-23 04:20:00,
2013-03-23 00:25:00,48.2,36.2,30.03,WSW,255,0.0,0.0,63,0.00,,---,0.00,VWS V14.01,2013-03-23 04:25:00,
2013-03-23 00:30:00,48.2,36.2,30.03,WSW,255,0.0,0.0,63,0.00,,---,0.00,VWS V14.01,2013-03-23 04:30:00,
2013-03-23 00:35:00,48.2,36.2,30.03,WSW,255,0.0,0.0,63,0.00,,---,0.00,VWS V14.01,2013-03-23 04:35:00,
2013-03-23 00:40:00,48.2,36.2,30.03,WSW,255,0.0,0.0,63,0.00,,---,0.00,VWS V14.01,2013-03-23 04:40:00,
2013-03-23 00:45:00,48.2,36.2,30.03,WSW,255,0.0,0.0,63,0.00,,---,0.00,VWS V14.01,2013-03-23 04:45:00,
2013-03-23 00:50:00,48.2,36.2,30.03,WSW,255,0.0,0.0,63,0.00,,---,0.00,VWS V14.01,2013-03-23 04:50:00,
2013-03-23 00:55:00,48.2,36.2,30.03,WSW,255,0.0,0.0,63,0.00,,---,0.00,VWS V14.01,2013-03-23 04:55:00,
2013-03-23 01:00:00,48.2,36.2,30.03,WSW,255,0.0,0.0,63,0.00,,---,0.00,VWS V14.01,2013-03-23 05:00:00,
2013-03-23 01:05:00,48.2,36.2,30.03,WSW,255,0.0,0.0,63,0.00,,---,0.00,VWS V14.01,2013-03-23 05:05:00,
2013-03-23 01:10:00,48.2,36.2,30.03,WSW,255,0.0,0.0,63,0.00,,---,0.00,VWS V14.01,2013-03-23 05:10:00,
2013-03-23 01:15:00,48.2,36.2,30.03,WSW,255,0.0,0.0,63,0.00,,---,0.00,VWS V14.01,2013-03-23 05:15:00,
2013-03-23 01:20:00,48.2,36.2,30.03,WSW,255,0.0,0.0,63,0.00,,---,0.00,VWS V14.01,2013-03-23 05:20:00,
2013-03-23 01:25:00,48.2,36.2,30.03,WSW,255,0.0,0.0,63,0.00,,---,0.00,VWS V14.01,2013-03-23 05:25:00,
2013-03-23 01:30:00,48.2,36.2,30.03,WSW,255,0.0,0.0,63,0.00,,---,0.00,VWS V14.01,2013-03-23 05:30:00,
2013-03-23 01:35:00,48.2,36.2,30.03,WSW,255,0.0,0.0,63,0.00,,---,0.00,VWS V14.01,2013-03-23 05:35:00,
2013-03-23 01:40:00,48.2,36.2,30.03,WSW,255,0.0,0.0,63,0.00,,---,0.00,VWS V14.01,2013-03-23 05:40:00,
2013-03-23 01:45:00,48.2,36.2,30.03,WSW,255,0.0,0.0,63,0.00,,---,0.00,VWS V14.01,2013-03-23 05:45:00,
2013-03-23 01:50:00,48.2,36.2,30.04,WSW,255,0.0,0.0,63,0.00,,---,0.00,VWS V14.01,2013-03-23 05:50:00,
2013-03-23 01:55:00,48.2,36.2,30.03,WSW,255,0.0,0.0,63,0.00,,---,0.00,VWS V14.01,2013-03-23 05:55:00,
2013-03-23 02:00:00,48.2,36.2,30.03,WSW,255,0.0,0.0,63,0.00,,---,0.00,VWS V14.01,2013-03-23 06:00:00,
2013-03-23 02:05:00,48.2,36.2,30.03,WSW,255,0.0,0.0,63,0.00,,---,0.00,VWS V14.01,2013-03-23 06:05:00,
2013-03-23 02:10:00,48.2,36.2,30.03,WSW,255,0.0,0.0,63,0.00,,---,0.00,VWS V14.01,2013-03-23 06:10:00,
2013-03-23 02:14:00,48.2,36.2,30.03,WSW,255,0.0,0.0,63,0.00,,---,0.00,VWS V14.01,2013-03-23 06:14:00,
2013-03-23 02:19:00,48.2,36.2,30.02,WSW,255,0.0,0.0,63,0.00,,---,0.00,VWS V14.01,2013-03-23 06:19:00,
2013-03-23 02:24:00,48.2,36.2,30.01,WSW,255,0.0,0.0,63,0.00,,---,0.00,VWS V14.01,2013-03-23 06:24:00,
2013-03-23 02:29:00,48.2,36.2,30.02,WSW,255,0.0,0.0,63,0.00,,---,0.00,VWS V14.01,2013-03-23 06:29:00,
2013-03-23 02:30:00,48.2,36.2,30.02,WSW,255,0.0,0.0,63,0.00,,---,0.00,VWS V14.01,2013-03-23 06:30:00,
2013-03-23 02:34:00,48.2,36.2,30.01,WSW,255,0.0,0.0,63,0.00,,---,0.00,VWS V14.01,2013-03-23 06:34:00,
2013-03-23 02:39:00,48.2,36.2,30.02,WSW,255,0.0,0.0,63,0.00,,---,0.00,VWS V14.01,2013-03-23 06:39:00,
2013-03-23 02:44:00,48.2,36.2,30.02,WSW,255,0.0,0.0,63,0.00,,---,0.00,VWS V14.01,2013-03-23 06:44:00,
2013-03-23 02:49:00,48.2,36.2,30.03,WSW,255,0.0,0.0,63,0.00,,---,0.00,VWS V14.01,2013-03-23 06:49:00,
2013-03-23 02:54:00,48.2,36.2,30.02,WSW,255,0.0,0.0,63,0.00,,---,0.00,VWS V14.01,2013-03-23 06:54:00,
2013-03-23 02:59:00,48.2,36.2,30.02,WSW,255,0.0,0.0,63,0.00,,---,0.00,VWS V14.01,2013-03-23 06:59:00,
2013-03-23 03:00:00,48.2,36.2,30.02,WSW,255,0.0,0.0,63,0.00,,---,0.00,VWS V14.01,2013-03-23 07:00:00,
2013-03-23 03:04:00,48.2,36.2,30.02,WSW,255,0.0,0.0,63,0.00,,---,0.00,VWS V14.01,2013-03-23 07:04:00,
2013-03-23 03:09:00,48.2,36.2,30.01,WSW,255,0.0,0.0,63,0.00,,---,0.00,VWS V14.01,2013-03-23 07:09:00,
2013-03-23 03:14:00,48.2,36.2,30.01,WSW,255,0.0,0.0,63,0.00,,---,0.00,VWS V14.01,2013-03-23 07:14:00,
2013-03-23 03:19:00,48.2,36.2,30.02,WSW,255,0.0,0.0,63,0.00,,---,0.00,VWS V14.01,2013-03-23 07:19:00,
2013-03-23 03:24:00,48.2,36.2,30.01,WSW,255,0.0,0.0,63,0.00,,---,0.00,VWS V14.01,2013-03-23 07:24:00,
2013-03-23 03:29:00,48.2,36.2,30.01,WSW,255,0.0,0.0,63,0.00,,---,0.00,VWS V14.01,2013-03-23 07:29:00,
2013-03-23 03:30:00,48.2,36.2,30.01,WSW,255,0.0,0.0,63,0.00,,---,0.00,VWS V14.01,2013-03-23 07:30:00,
2013-03-23 03:34:00,48.2,36.2,30.01,WSW,255,0.0,0.0,63,0.00,,---,0.00,VWS V14.01,2013-03-23 07:34:00,
2013-03-23 03:39:00,48.2,36.2,30.01,WSW,255,0.0,0.0,63,0.00,,---,0.00,VWS V14.01,2013-03-23 07:39:00,
2013-03-23 03:44:00,48.2,36.2,30.01,WSW,255,0.0,0.0,63,0.00,,---,0.00,VWS V14.01,2013-03-23 07:44:00,
2013-03-23 03:49:00,48.2,36.2,30.00,WSW,255,0.0,0.0,63,0.00,,---,0.00,VWS V14.01,2013-03-23 07:49:00,
2013-03-23 03:54:00,48.2,36.2,30.00,WSW,255,0.0,0.0,63,0.00,,---,0.00,VWS V14.01,2013-03-23 07:54:00,
2013-03-23 03:59:00,48.2,36.2,30.00,WSW,255,0.0,0.0,63,0.00,,---,0.00,VWS V14.01,2013-03-23 07:59:00,
2013-03-23 04:00:00,48.2,36.2,30.00,WSW,255,0.0,0.0,63,0.00,,---,0.00,VWS V14.01,2013-03-23 08:00:00,
2013-03-23 04:04:00,48.2,36.2,30.00,WSW,254,0.0,0.0,63,0.00,,---,0.00,VWS V14.01,2013-03-23 08:04:00,
2013-03-23 04:09:00,41.5,35.2,30.01,WSW,254,0.0,0.0,78,0.00,,---,0.00,VWS V14.01,2013-03-23 08:09:00,
2013-03-23 04:14:00,41.5,35.2,30.01,WSW,255,0.0,0.0,78,0.00,,---,0.00,VWS V14.01,2013-03-23 08:14:00,
2013-03-23 04:19:00,41.5,35.2,30.01,WSW,254,0.0,0.0,78,0.00,,---,0.00,VWS V14.01,2013-03-23 08:19:00,
2013-03-23 04:24:00,41.6,35.3,30.01,WSW,254,0.0,0.0,78,0.00,,---,0.00,VWS V14.01,2013-03-23 08:24:00,
2013-03-23 04:29:00,41.7,35.4,30.01,WSW,254,0.0,0.0,78,0.00,,---,0.00,VWS V14.01,2013-03-23 08:29:00,
2013-03-23 04:30:00,41.7,35.4,30.01,WSW,254,0.0,0.0,78,0.00,,---,0.00,VWS V14.01,2013-03-23 08:30:00,
2013-03-23 04:34:00,41.7,35.4,30.01,WSW,254,0.0,0.0,78,0.00,,---,0.00,VWS V14.01,2013-03-23 08:34:00,
2013-03-23 04:39:00,41.8,35.5,30.00,WSW,254,0.0,0.0,78,0.00,,---,0.00,VWS V14.01,2013-03-23 08:39:00,
2013-03-23 04:44:00,41.9,35.5,30.00,WSW,254,0.0,0.0,78,0.00,,---,0.00,VWS V14.01,2013-03-23 08:44:00,
2013-03-23 04:49:00,42.2,36.2,29.99,WSW,254,0.0,0.0,79,0.00,,---,0.00,VWS V14.01,2013-03-23 08:49:00,
2013-03-23 04:54:00,42.2,35.8,30.00,WSW,254,0.0,0.0,78,0.00,,---,0.00,VWS V14.01,2013-03-23 08:54:00,
2013-03-23 04:59:00,42.1,35.8,29.99,WSW,254,0.0,0.0,78,0.00,,---,0.00,VWS V14.01,2013-03-23 08:59:00,
2013-03-23 05:00:00,42.1,35.8,30.00,WSW,254,0.0,0.0,78,0.00,,---,0.00,VWS V14.01,2013-03-23 09:00:00,
2013-03-23 05:04:00,42.1,35.8,29.99,WSW,254,0.0,0.0,78,0.00,,---,0.00,VWS V14.01,2013-03-23 09:04:00,
2013-03-23 05:09:00,42.2,35.8,29.99,WSW,254,0.0,0.0,78,0.00,,---,0.00,VWS V14.01,2013-03-23 09:09:00,
2013-03-23 05:14:00,42.1,35.8,29.99,WSW,255,0.0,0.0,78,0.00,,---,0.00,VWS V14.01,2013-03-23 09:14:00,
2013-03-23 05:19:00,42.0,35.7,29.99,WSW,254,0.0,0.0,78,0.00,,---,0.00,VWS V14.01,2013-03-23 09:19:00,
2013-03-23 05:24:00,41.9,35.5,29.99,WSW,254,0.0,0.0,78,0.00,,---,0.00,VWS V14.01,2013-03-23 09:24:00,
2013-03-23 05:29:00,41.7,35.4,29.99,WSW,254,0.0,0.0,78,0.00,,---,0.00,VWS V14.01,2013-03-23 09:29:00,
2013-03-23 05:30:00,41.7,35.4,30.00,WSW,254,0.0,0.0,78,0.00,,---,0.00,VWS V14.01,2013-03-23 09:30:00,
2013-03-23 05:34:00,41.6,35.3,30.00,WSW,254,0.0,0.0,78,0.00,,---,0.00,VWS V14.01,2013-03-23 09:34:00,
2013-03-23 05:39:00,41.6,35.3,29.99,WSW,254,0.0,0.0,78,0.00,,---,0.00,VWS V14.01,2013-03-23 09:39:00,
2013-03-23 05:44:00,41.7,35.7,29.99,WSW,254,0.0,0.0,79,0.00,,---,0.00,VWS V14.01,2013-03-23 09:44:00,
2013-03-23 05:49:00,41.6,35.6,30.00,WSW,254,0.0,0.0,79,0.00,,---,0.00,VWS V14.01,2013-03-23 09:49:00,
2013-03-23 05:54:00,41.5,35.2,29.99,WSW,254,0.0,0.0,78,0.00,,---,0.00,VWS V14.01,2013-03-23 09:54:00,
2013-03-23 05:59:00,41.4,35.4,29.99,WSW,254,0.0,0.0,79,0.00,,---,0.00,VWS V14.01,2013-03-23 09:59:00,
2013-03-23 06:00:00,41.4,35.4,29.99,WSW,254,0.0,0.0,79,0.00,,---,0.00,VWS V14.01,2013-03-23 10:00:00,
2013-03-23 06:04:00,41.3,35.3,29.99,WSW,254,0.0,0.0,79,0.00,,---,0.00,VWS V14.01,2013-03-23 10:04:00,
2013-03-23 06:09:00,41.1,35.1,29.99,WSW,254,0.0,0.0,79,0.00,,---,0.00,VWS V14.01,2013-03-23 10:09:00,
2013-03-23 06:14:00,41.1,35.1,30.00,WSW,254,0.0,0.0,79,0.00,,---,0.00,VWS V14.01,2013-03-23 10:14:00,
2013-03-23 06:19:00,41.0,35.0,30.00,WSW,254,0.0,0.0,79,0.00,,---,0.00,VWS V14.01,2013-03-23 10:19:00,
2013-03-23 06:24:00,41.0,35.0,30.00,WSW,254,0.0,0.0,79,0.00,,---,0.00,VWS V14.01,2013-03-23 10:24:00,
2013-03-23 06:29:00,41.0,35.0,30.00,WSW,254,0.0,0.0,79,0.00,,---,0.00,VWS V14.01,2013-03-23 10:29:00,
2013-03-23 06:30:00,41.0,35.3,30.00,WSW,254,0.0,0.0,80,0.00,,---,0.00,VWS V14.01,2013-03-23 10:30:00,
2013-03-23 06:34:00,41.0,35.3,30.00,WSW,254,0.0,0.0,80,0.00,,---,0.00,VWS V14.01,2013-03-23 10:34:00,
2013-03-23 06:39:00,41.1,35.4,30.00,WSW,254,0.0,0.0,80,0.00,,---,0.00,VWS V14.01,2013-03-23 10:39:00,
2013-03-23 06:44:00,41.4,35.7,30.00,WSW,254,0.0,0.0,80,0.00,,---,0.00,VWS V14.01,2013-03-23 10:44:00,
2013-03-23 06:49:00,41.5,35.8,30.00,WSW,254,0.0,0.0,80,0.00,,---,0.00,VWS V14.01,2013-03-23 10:49:00,
2013-03-23 06:54:00,41.7,36.0,30.01,WSW,254,0.0,0.0,80,0.00,,---,0.00,VWS V14.01,2013-03-23 10:54:00,
2013-03-23 06:59:00,41.9,36.2,30.00,WSW,255,0.0,0.0,80,0.00,,---,0.00,VWS V14.01,2013-03-23 10:59:00,
2013-03-23 07:00:00,42.0,36.3,30.00,WSW,257,0.0,0.0,80,0.00,,---,0.00,VWS V14.01,2013-03-23 11:00:00,
2013-03-23 07:04:00,42.0,36.6,30.00,West,273,0.0,0.0,81,0.00,,---,0.00,VWS V14.01,2013-03-23 11:04:00,
2013-03-23 07:09:00,42.0,36.6,30.01,West,273,0.0,0.0,81,0.00,,---,0.00,VWS V14.01,2013-03-23 11:09:00,
2013-03-23 07:14:00,42.0,36.6,30.00,West,273,0.0,0.0,81,0.00,,---,0.00,VWS V14.01,2013-03-23 11:14:00,
2013-03-23 07:19:00,42.0,36.6,30.00,West,273,0.0,0.0,81,0.00,,---,0.00,VWS V14.01,2013-03-23 11:19:00,
2013-03-23 07:24:00,42.0,36.6,30.00,West,273,0.0,0.0,81,0.00,,---,0.00,VWS V14.01,2013-03-23 11:24:00,
2013-03-23 07:29:00,42.0,36.6,30.00,West,273,0.0,0.0,81,0.00,,---,0.00,VWS V14.01,2013-03-23 11:29:00,
2013-03-23 07:30:00,42.0,36.6,30.00,West,273,0.0,0.0,81,0.00,,---,0.00,VWS V14.01,2013-03-23 11:30:00,
2013-03-23 07:34:00,42.0,36.6,29.99,West,273,0.0,0.0,81,0.00,,---,0.00,VWS V14.01,2013-03-23 11:34:00,
2013-03-23 07:39:00,42.0,36.6,29.99,West,273,0.0,0.0,81,0.00,,---,0.00,VWS V14.01,2013-03-23 11:39:00,
2013-03-23 07:44:00,42.0,36.6,29.99,West,273,0.0,0.0,81,0.00,,---,0.00,VWS V14.01,2013-03-23 11:44:00,
2013-03-23 07:49:00,42.0,36.6,29.99,West,273,0.0,0.0,81,0.00,,---,0.00,VWS V14.01,2013-03-23 11:49:00,
2013-03-23 07:54:00,42.0,36.6,29.99,West,273,0.0,0.0,81,0.00,,---,0.00,VWS V14.01,2013-03-23 11:54:00,
2013-03-23 07:59:00,42.0,36.6,30.00,West,273,0.0,0.0,81,0.00,,---,0.00,VWS V14.01,2013-03-23 11:59:00,
2013-03-23 08:00:00,42.0,36.6,30.00,West,273,0.0,0.0,81,0.00,,---,0.00,VWS V14.01,2013-03-23 12:00:00,
2013-03-23 08:04:00,45.4,36.2,30.00,North,355,0.0,0.0,70,0.00,,---,0.00,VWS V14.01,2013-03-23 12:04:00,
2013-03-23 08:09:00,45.9,35.6,30.00,North,355,0.0,0.0,67,0.00,,---,0.00,VWS V14.01,2013-03-23 12:09:00,
2013-03-23 08:14:00,46.2,35.1,30.01,North,355,0.0,0.0,65,0.00,,---,0.00,VWS V14.01,2013-03-23 12:14:00,
2013-03-23 08:19:00,46.6,34.7,30.01,North,355,0.0,0.0,63,0.00,,---,0.00,VWS V14.01,2013-03-23 12:19:00,
2013-03-23 08:24:00,46.8,34.9,30.00,North,355,0.0,0.0,63,0.00,,---,0.00,VWS V14.01,2013-03-23 12:24:00,
2013-03-23 08:29:00,47.0,35.1,30.00,North,355,0.0,0.0,63,0.00,,---,0.00,VWS V14.01,2013-03-23 12:29:00,
2013-03-23 08:30:00,47.1,34.8,30.00,North,355,0.0,0.0,62,0.00,,---,0.00,VWS V14.01,2013-03-23 12:30:00,
2013-03-23 08:34:00,47.2,34.9,30.00,North,355,0.0,0.0,62,0.00,,---,0.00,VWS V14.01,2013-03-23 12:34:00,
2013-03-23 08:39:00,47.4,35.5,30.00,North,355,0.0,0.0,63,0.00,,---,0.00,VWS V14.01,2013-03-23 12:39:00,
2013-03-23 08:44:00,47.6,35.2,29.99,North,355,0.0,0.0,62,0.00,,---,0.00,VWS V14.01,2013-03-23 12:44:00,
2013-03-23 08:49:00,47.9,35.5,29.99,North,355,0.0,0.0,62,0.00,,---,0.00,VWS V14.01,2013-03-23 12:49:00,
2013-03-23 08:54:00,48.1,35.3,30.00,North,355,0.0,0.0,61,0.00,,---,0.00,VWS V14.01,2013-03-23 12:54:00,
2013-03-23 08:59:00,48.3,35.9,30.01,North,355,0.0,0.0,62,0.00,,---,0.00,VWS V14.01,2013-03-23 12:59:00,
2013-03-23 09:00:00,48.5,36.1,30.00,North,355,0.0,0.0,62,0.00,,---,0.00,VWS V14.01,2013-03-23 13:00:00,
2013-03-23 09:04:00,48.7,36.3,30.00,North,355,0.0,0.0,62,0.00,,---,0.00,VWS V14.01,2013-03-23 13:04:00,
2013-03-23 09:09:00,49.1,35.8,30.00,North,355,0.0,0.0,60,0.00,,---,0.00,VWS V14.01,2013-03-23 13:09:00,
2013-03-23 09:14:00,49.7,36.4,30.00,North,350,0.0,0.0,60,0.00,,---,0.00,VWS V14.01,2013-03-23 13:14:00,
2013-03-23 09:19:00,50.1,36.3,30.01,North,360,0.0,0.0,59,0.00,,---,0.00,VWS V14.01,2013-03-23 13:19:00,
2013-03-23 09:24:00,50.3,36.5,30.00,North,360,0.0,0.0,59,0.00,,---,0.00,VWS V14.01,2013-03-23 13:24:00,
2013-03-23 09:29:00,50.5,36.3,30.01,North,360,0.0,0.0,58,0.00,,---,0.00,VWS V14.01,2013-03-23 13:29:00,
2013-03-23 09:30:00,50.5,36.3,30.01,North,360,0.0,0.0,58,0.00,,---,0.00,VWS V14.01,2013-03-23 13:30:00,
2013-03-23 09:34:00,50.5,36.3,30.02,North,360,0.0,0.0,58,0.00,,---,0.00,VWS V14.01,2013-03-23 13:34:00,
2013-03-23 09:39:00,50.4,36.6,30.03,North,360,0.0,0.0,59,0.00,,---,0.00,VWS V14.01,2013-03-23 13:39:00,
2013-03-23 09:44:00,50.0,37.1,30.03,North,355,0.0,0.0,61,0.00,,---,0.00,VWS V14.01,2013-03-23 13:44:00,
2013-03-23 09:49:00,49.3,37.2,30.03,North,355,0.0,0.0,63,0.00,,---,0.00,VWS V14.01,2013-03-23 13:49:00,
2013-03-23 09:54:00,48.7,37.1,30.03,NNW,333,0.0,0.0,64,0.00,,---,0.00,VWS V14.01,2013-03-23 13:54:00,
2013-03-23 09:59:00,48.2,36.6,30.03,NW,322,0.0,0.0,64,0.00,,---,0.00,VWS V14.01,2013-03-23 13:59:00,
2013-03-23 10:00:00,48.2,36.6,30.03,North,5,0.0,0.0,64,0.00,,---,0.00,VWS V14.01,2013-03-23 14:00:00,
2013-03-23 10:04:00,48.0,36.4,30.04,North,5,0.0,0.0,64,0.00,,---,0.00,VWS V14.01,2013-03-23 14:04:00,
2013-03-23 10:09:00,47.8,36.2,30.04,North,360,0.0,0.0,64,0.00,,---,0.00,VWS V14.01,2013-03-23 14:09:00,
2013-03-23 10:14:00,47.6,36.4,30.03,NE,43,0.0,0.0,65,0.00,,---,0.00,VWS V14.01,2013-03-23 14:14:00,
2013-03-23 10:19:00,47.3,36.5,30.03,NNE,16,0.0,0.0,66,0.00,,---,0.00,VWS V14.01,2013-03-23 14:19:00,
2013-03-23 10:24:00,47.0,36.6,30.02,NNE,26,0.0,0.0,67,0.01,,---,0.01,VWS V14.01,2013-03-23 14:24:00,
2013-03-23 10:29:00,46.6,36.6,30.04,North,355,0.0,0.0,68,0.01,,---,0.01,VWS V14.01,2013-03-23 14:29:00,
2013-03-23 10:30:00,46.5,36.9,30.04,North,355,0.0,0.0,69,0.01,,---,0.01,VWS V14.01,2013-03-23 14:30:00,
2013-03-23 10:34:00,46.3,37.1,30.04,North,5,0.0,0.0,70,0.01,,---,0.01,VWS V14.01,2013-03-23 14:34:00,
2013-03-23 10:39:00,46.1,37.2,30.03,North,5,0.0,0.0,71,0.01,,---,0.01,VWS V14.01,2013-03-23 14:39:00,
2013-03-23 10:44:00,45.8,37.3,30.03,NNE,16,0.0,0.0,72,0.01,,---,0.01,VWS V14.01,2013-03-23 14:44:00,
2013-03-23 10:49:00,45.6,37.5,30.03,North,5,0.0,0.0,73,0.01,,---,0.01,VWS V14.01,2013-03-23 14:49:00,
2013-03-23 10:54:00,45.5,37.4,30.04,North,9,0.0,0.0,73,0.01,,---,0.01,VWS V14.01,2013-03-23 14:54:00,
2013-03-23 10:59:00,45.4,37.3,30.04,North,355,0.0,0.0,73,0.01,,---,0.01,VWS V14.01,2013-03-23 14:59:00,
2013-03-23 11:00:00,45.4,37.3,30.04,NE,37,0.0,0.0,73,0.01,,---,0.01,VWS V14.01,2013-03-23 15:00:00,
2013-03-23 11:04:00,45.3,37.2,30.03,NNE,13,0.0,0.0,73,0.01,,---,0.01,VWS V14.01,2013-03-23 15:04:00,
2013-03-23 11:09:00,45.2,37.1,30.03,NNW,338,0.0,0.0,73,0.01,,---,0.01,VWS V14.01,2013-03-23 15:09:00,
2013-03-23 11:14:00,45.1,37.3,30.04,North,9,0.0,0.0,74,0.01,,---,0.01,VWS V14.01,2013-03-23 15:14:00,
2013-03-23 11:19:00,44.9,37.5,30.04,NNE,28,0.0,0.0,75,0.01,,---,0.01,VWS V14.01,2013-03-23 15:19:00,
2013-03-23 11:24:00,44.7,37.3,30.03,NNE,26,0.0,0.0,75,0.01,,---,0.01,VWS V14.01,2013-03-23 15:24:00,
2013-03-23 11:29:00,44.6,37.5,30.03,NE,36,0.0,0.0,76,0.01,,---,0.01,VWS V14.01,2013-03-23 15:29:00,
2013-03-23 11:30:00,44.6,37.5,30.03,NNE,14,0.0,0.0,76,0.01,,---,0.01,VWS V14.01,2013-03-23 15:30:00,
2013-03-23 11:34:00,44.5,37.4,30.03,NE,41,0.0,0.0,76,0.00,,---,0.01,VWS V14.01,2013-03-23 15:34:00,
2013-03-23 11:39:00,44.3,37.2,30.02,ENE,65,0.0,0.0,76,0.00,,---,0.01,VWS V14.01,2013-03-23 15:39:00,
2013-03-23 11:44:00,44.2,37.1,30.03,NNE,14,0.0,0.0,76,0.00,,---,0.01,VWS V14.01,2013-03-23 15:44:00,
2013-03-23 11:49:00,44.1,37.0,30.03,NNE,24,0.0,0.0,76,0.00,,---,0.01,VWS V14.01,2013-03-23 15:49:00,
2013-03-23 11:54:00,44.1,37.4,30.04,North,11,0.0,0.0,77,0.00,,---,0.01,VWS V14.01,2013-03-23 15:54:00,
2013-03-23 11:59:00,44.1,37.4,30.04,North,5,0.0,0.0,77,0.02,,---,0.03,VWS V14.01,2013-03-23 15:59:00,
2013-03-23 12:00:00,44.0,37.3,30.04,NNE,13,0.0,0.0,77,0.03,,---,0.04,VWS V14.01,2013-03-23 16:00:00,
2013-03-23 12:04:00,43.9,37.5,30.03,NE,36,0.0,0.0,78,0.05,,---,0.06,VWS V14.01,2013-03-23 16:04:00,
2013-03-23 12:09:00,43.7,37.3,30.03,NE,49,0.0,0.0,78,0.09,,---,0.10,VWS V14.01,2013-03-23 16:09:00,
2013-03-23 12:14:00,43.7,37.6,30.02,NE,34,0.0,0.0,79,0.11,,---,0.12,VWS V14.01,2013-03-23 16:14:00,
2013-03-23 12:19:00,43.6,37.5,30.02,NNE,27,0.0,0.0,79,0.14,,---,0.15,VWS V14.01,2013-03-23 16:19:00,
2013-03-23 12:24:00,43.6,37.8,30.03,NNE,27,0.0,0.0,80,0.19,,---,0.20,VWS V14.01,2013-03-23 16:24:00,
2013-03-23 12:29:00,43.6,37.8,30.02,NNE,13,0.0,0.0,80,0.22,,---,0.23,VWS V14.01,2013-03-23 16:29:00,
2013-03-23 12:30:00,43.6,37.8,30.02,NNE,13,0.0,0.0,80,0.22,,---,0.23,VWS V14.01,2013-03-23 16:30:00,
2013-03-23 12:34:00,43.7,38.3,30.02,NNE,13,0.0,0.0,81,0.22,,---,0.23,VWS V14.01,2013-03-23 16:34:00,
2013-03-23 12:39:00,43.8,38.4,30.02,NNE,13,0.0,0.0,81,0.23,,---,0.24,VWS V14.01,2013-03-23 16:39:00,
2013-03-23 12:44:00,43.7,38.3,30.01,NNE,13,0.0,0.0,81,0.23,,---,0.24,VWS V14.01,2013-03-23 16:44:00,
2013-03-23 12:49:00,43.7,38.3,30.01,NNE,13,0.0,0.0,81,0.25,,---,0.26,VWS V14.01,2013-03-23 16:49:00,
2013-03-23 12:54:00,43.8,38.4,30.02,NNE,13,0.0,0.0,81,0.25,,---,0.26,VWS V14.01,2013-03-23 16:54:00,
2013-03-23 12:59:00,43.8,38.4,30.01,NNE,13,0.0,0.0,81,0.26,,---,0.27,VWS V14.01,2013-03-23 16:59:00,
2013-03-23 13:00:00,43.9,38.5,30.01,NNE,13,0.0,0.0,81,0.26,,---,0.27,VWS V14.01,2013-03-23 17:00:00,
2013-03-23 13:04:00,44.1,39.0,30.01,NNE,13,0.0,0.0,82,0.24,,---,0.28,VWS V14.01,2013-03-23 17:04:00,
2013-03-23 13:09:00,44.3,39.2,30.01,NNE,13,0.0,0.0,82,0.25,,---,0.29,VWS V14.01,2013-03-23 17:09:00,
2013-03-23 13:14:00,44.4,39.3,30.02,NE,55,0.0,0.0,82,0.26,,---,0.30,VWS V14.01,2013-03-23 17:14:00,
2013-03-23 13:19:00,44.5,39.4,30.01,NNE,24,0.0,0.0,82,0.28,,---,0.32,VWS V14.01,2013-03-23 17:19:00,
2013-03-23 13:24:00,44.5,39.4,30.01,NE,39,0.0,0.0,82,0.29,,---,0.33,VWS V14.01,2013-03-23 17:24:00,
2013-03-23 13:29:00,44.5,39.4,30.00,NE,46,0.0,0.0,82,0.30,,---,0.34,VWS V14.01,2013-03-23 17:29:00,
2013-03-23 13:30:00,44.6,39.5,30.01,NE,46,0.0,0.0,82,0.30,,---,0.34,VWS V14.01,2013-03-23 17:30:00,
2013-03-23 13:34:00,44.7,39.5,30.01,NE,46,0.0,0.0,82,0.11,,---,0.34,VWS V14.01,2013-03-23 17:34:00,
2013-03-23 13:39:00,44.7,39.5,30.01,NE,44,0.0,0.0,82,0.12,,---,0.35,VWS V14.01,2013-03-23 17:39:00,
2013-03-23 13:44:00,44.7,39.5,30.01,NNE,26,0.0,0.0,82,0.12,,---,0.35,VWS V14.01,2013-03-23 17:44:00,
2013-03-23 13:49:00,44.9,39.8,30.00,NNE,26,0.0,0.0,82,0.13,,---,0.36,VWS V14.01,2013-03-23 17:49:00,
2013-03-23 13:54:00,45.0,39.8,30.02,NNE,26,0.0,0.0,82,0.13,,---,0.36,VWS V14.01,2013-03-23 17:54:00,
2013-03-23 13:59:00,45.1,40.2,30.01,NE,34,0.0,0.0,83,0.14,,---,0.37,VWS V14.01,2013-03-23 17:59:00,
2013-03-23 14:00:00,45.1,40.3,30.01,NE,43,0.0,0.0,83,0.14,,---,0.37,VWS V14.01,2013-03-23 18:00:00,
2013-03-23 14:04:00,45.2,40.3,30.01,NE,34,0.0,0.0,83,0.10,,---,0.37,VWS V14.01,2013-03-23 18:04:00,
2013-03-23 14:09:00,45.2,40.3,30.00,North,5,0.0,0.0,83,0.10,,---,0.37,VWS V14.01,2013-03-23 18:09:00,
2013-03-23 14:14:00,45.2,40.3,30.01,ENE,67,0.0,0.0,83,0.10,,---,0.37,VWS V14.01,2013-03-23 18:14:00,
2013-03-23 14:19:00,44.9,39.8,30.01,NNE,19,0.0,0.0,82,0.11,,---,0.38,VWS V14.01,2013-03-23 18:19:00,
2013-03-23 14:24:00,44.8,39.7,30.01,North,351,0.0,0.0,82,0.11,,---,0.38,VWS V14.01,2013-03-23 18:24:00,
2013-03-23 14:30:00,44.6,37.5,30.03,NNE,14,0.0,0.0,76,0.01,,---,0.01,VWS V14.01,2013-03-23 18:30:00,
2013-03-23 14:32:00,44.7,39.5,30.00,NE,41,0.0,0.0,82,0.00,,---,0.39,VWS V14.01,2013-03-23 18:32:00,
2013-03-23 14:37:00,44.9,40.1,29.99,NE,49,0.0,0.0,83,0.12,,---,0.39,VWS V14.01,2013-03-23 18:37:00,
2013-03-23 14:42:00,45.1,40.2,29.98,NE,49,0.0,0.0,83,0.13,,---,0.40,VWS V14.01,2013-03-23 18:42:00,
2013-03-23 14:47:00,45.1,40.2,29.97,NE,55,0.0,0.0,83,0.13,,---,0.40,VWS V14.01,2013-03-23 18:47:00,
2013-03-23 14:52:00,44.9,39.8,29.96,ENE,69,0.0,0.0,82,0.13,,---,0.40,VWS V14.01,2013-03-23 18:52:00,
2013-03-23 14:57:00,45.0,39.8,29.94,ENE,74,0.0,0.0,82,0.13,,---,0.40,VWS V14.01,2013-03-23 18:57:00,
2013-03-23 15:00:00,45.1,39.9,29.93,ESE,117,0.0,0.0,82,0.13,,---,0.40,VWS V14.01,2013-03-23 19:00:00,
2013-03-23 15:02:00,45.3,40.1,29.92,ESE,105,0.0,0.0,82,0.03,,---,0.40,VWS V14.01,2013-03-23 19:02:00,
2013-03-23 15:07:00,45.7,40.5,29.91,East,96,0.0,0.0,82,0.03,,---,0.40,VWS V14.01,2013-03-23 19:07:00,
2013-03-23 15:12:00,46.1,41.2,29.92,East,85,0.0,0.0,83,0.03,,---,0.40,VWS V14.01,2013-03-23 19:12:00,
2013-03-23 15:17:00,46.7,41.5,29.93,East,94,0.0,0.0,82,0.04,,---,0.41,VWS V14.01,2013-03-23 19:17:00,
2013-03-23 15:22:00,46.7,41.5,29.93,ENE,75,0.0,0.0,82,0.04,,---,0.41,VWS V14.01,2013-03-23 19:22:00,
2013-03-23 15:27:00,46.7,41.5,29.92,ENE,75,0.0,0.0,82,0.04,,---,0.41,VWS V14.01,2013-03-23 19:27:00,
2013-03-23 15:30:00,46.7,41.5,29.92,ENE,75,0.0,0.0,82,0.04,,---,0.41,VWS V14.01,2013-03-23 19:30:00,
2013-03-23 15:32:00,46.7,41.5,29.91,ENE,75,0.0,0.0,82,0.01,,---,0.41,VWS V14.01,2013-03-23 19:32:00,
2013-03-23 15:37:00,46.7,41.5,29.91,ENE,75,0.0,0.0,82,0.01,,---,0.41,VWS V14.01,2013-03-23 19:37:00,
2013-03-23 15:42:00,46.7,41.5,29.92,ENE,75,0.0,0.0,82,0.01,,---,0.41,VWS V14.01,2013-03-23 19:42:00,
2013-03-23 15:47:00,46.7,41.5,29.92,ENE,75,0.0,0.0,82,0.01,,---,0.41,VWS V14.01,2013-03-23 19:47:00,
2013-03-23 15:52:00,46.7,41.5,29.92,ENE,75,0.0,0.0,82,0.01,,---,0.41,VWS V14.01,2013-03-23 19:52:00,
2013-03-23 15:57:00,46.7,41.5,29.92,ENE,75,0.0,0.0,82,0.01,,---,0.41,VWS V14.01,2013-03-23 19:57:00,
2013-03-23 16:00:00,46.7,41.5,29.92,ENE,75,0.0,0.0,82,0.01,,---,0.41,VWS V14.01,2013-03-23 20:00:00,
2013-03-23 16:02:00,46.7,41.5,29.92,ENE,75,0.0,0.0,82,0.01,,---,0.41,VWS V14.01,2013-03-23 20:02:00,
2013-03-23 16:07:00,46.7,41.5,29.92,ENE,75,0.0,0.0,82,0.01,,---,0.41,VWS V14.01,2013-03-23 20:07:00,
2013-03-23 16:12:00,46.7,41.5,29.93,ENE,75,0.0,0.0,82,0.01,,---,0.41,VWS V14.01,2013-03-23 20:12:00,
2013-03-23 16:17:00,46.7,41.5,29.93,ENE,75,0.0,0.0,82,0.01,,---,0.41,VWS V14.01,2013-03-23 20:17:00,
2013-03-23 16:22:00,46.7,41.5,29.92,ENE,75,0.0,0.0,82,0.01,,---,0.41,VWS V14.01,2013-03-23 20:22:00,
2013-03-23 16:27:00,46.7,41.5,29.92,ENE,75,0.0,0.0,82,0.01,,---,0.41,VWS V14.01,2013-03-23 20:27:00,
2013-03-23 16:30:00,46.7,41.5,29.92,ENE,75,0.0,0.0,82,0.01,,---,0.41,VWS V14.01,2013-03-23 20:30:00,
2013-03-23 16:32:00,46.7,41.5,29.92,ENE,75,0.0,0.0,82,0.00,,---,0.41,VWS V14.01,2013-03-23 20:32:00,
2013-03-23 16:37:00,46.7,41.5,29.92,ENE,75,0.0,0.0,82,0.00,,---,0.41,VWS V14.01,2013-03-23 20:37:00,
2013-03-23 16:42:00,46.7,41.5,29.92,ENE,75,0.0,0.0,82,0.00,,---,0.41,VWS V14.01,2013-03-23 20:42:00,
2013-03-23 16:47:00,46.7,41.5,29.92,ENE,75,0.0,0.0,82,0.00,,---,0.41,VWS V14.01,2013-03-23 20:47:00,
2013-03-23 16:52:00,46.7,41.5,29.91,ENE,75,0.0,0.0,82,0.00,,---,0.41,VWS V14.01,2013-03-23 20:52:00,
2013-03-23 16:57:00,46.7,41.5,29.91,ENE,75,0.0,0.0,82,0.00,,---,0.41,VWS V14.01,2013-03-23 20:57:00,
2013-03-23 17:00:00,46.7,41.5,29.91,ENE,75,0.0,0.0,82,0.00,,---,0.41,VWS V14.01,2013-03-23 21:00:00,
2013-03-23 17:02:00,46.7,41.5,29.91,ENE,75,0.0,0.0,82,0.00,,---,0.41,VWS V14.01,2013-03-23 21:02:00,
2013-03-23 17:07:00,46.7,41.5,29.91,ENE,75,0.0,0.0,82,0.00,,---,0.41,VWS V14.01,2013-03-23 21:07:00,
2013-03-23 17:12:00,46.7,41.5,29.90,ENE,75,0.0,0.0,82,0.00,,---,0.41,VWS V14.01,2013-03-23 21:12:00,
2013-03-23 17:17:00,46.7,41.5,29.90,ENE,75,0.0,0.0,82,0.00,,---,0.41,VWS V14.01,2013-03-23 21:17:00,
2013-03-23 17:22:00,46.7,41.5,29.91,ENE,75,0.0,0.0,82,0.00,,---,0.41,VWS V14.01,2013-03-23 21:22:00,
2013-03-23 17:27:00,46.7,41.5,29.90,ENE,75,0.0,0.0,82,0.00,,---,0.41,VWS V14.01,2013-03-23 21:27:00,
2013-03-23 17:30:00,46.7,41.5,29.90,ENE,75,0.0,0.0,82,0.00,,---,0.41,VWS V14.01,2013-03-23 21:30:00,
2013-03-23 17:32:00,46.7,41.5,29.90,ENE,75,0.0,0.0,82,0.00,,---,0.41,VWS V14.01,2013-03-23 21:32:00,
2013-03-23 17:37:00,46.7,41.5,29.90,ENE,75,0.0,0.0,82,0.00,,---,0.41,VWS V14.01,2013-03-23 21:37:00,
2013-03-23 17:42:00,46.7,41.5,29.90,ENE,75,0.0,0.0,82,0.00,,---,0.41,VWS V14.01,2013-03-23 21:42:00,
2013-03-23 17:47:00,46.7,41.5,29.90,ENE,75,0.0,0.0,82,0.00,,---,0.41,VWS V14.01,2013-03-23 21:47:00,
2013-03-23 17:52:00,46.7,41.5,29.89,ENE,75,0.0,0.0,82,0.00,,---,0.41,VWS V14.01,2013-03-23 21:52:00,
2013-03-23 17:57:00,46.7,41.5,29.89,ENE,75,0.0,0.0,82,0.00,,---,0.41,VWS V14.01,2013-03-23 21:57:00,
2013-03-23 18:00:00,46.7,41.5,29.89,ENE,75,0.0,0.0,82,0.00,,---,0.41,VWS V14.01,2013-03-23 22:00:00,
2013-03-23 18:02:00,46.7,41.5,29.89,ENE,75,0.0,0.0,82,0.00,,---,0.41,VWS V14.01,2013-03-23 22:02:00,
2013-03-23 18:07:00,46.7,41.5,29.88,ENE,75,0.0,0.0,82,0.00,,---,0.41,VWS V14.01,2013-03-23 22:07:00,
2013-03-23 18:12:00,46.7,41.5,29.88,ENE,75,0.0,0.0,82,0.00,,---,0.41,VWS V14.01,2013-03-23 22:12:00,
2013-03-23 18:17:00,46.7,41.5,29.89,ENE,75,0.0,0.0,82,0.00,,---,0.41,VWS V14.01,2013-03-23 22:17:00,
2013-03-23 18:22:00,46.7,41.5,29.89,ENE,75,0.0,0.0,82,0.00,,---,0.41,VWS V14.01,2013-03-23 22:22:00,
2013-03-23 18:27:00,46.7,41.5,29.89,ENE,75,0.0,0.0,82,0.00,,---,0.41,VWS V14.01,2013-03-23 22:27:00,
2013-03-23 18:30:00,46.7,41.5,29.89,ENE,75,0.0,0.0,82,0.00,,---,0.41,VWS V14.01,2013-03-23 22:30:00,
2013-03-23 18:32:00,46.7,41.5,29.89,ENE,75,0.0,0.0,82,0.00,,---,0.41,VWS V14.01,2013-03-23 22:32:00,
2013-03-23 18:37:00,46.7,41.5,29.89,ENE,75,0.0,0.0,82,0.00,,---,0.41,VWS V14.01,2013-03-23 22:37:00,
2013-03-23 18:42:00,46.7,41.5,29.90,ENE,75,0.0,0.0,82,0.00,,---,0.41,VWS V14.01,2013-03-23 22:42:00,
2013-03-23 18:48:00,46.7,41.5,29.90,ENE,75,0.0,0.0,82,0.00,,---,0.41,VWS V14.01,2013-03-23 22:48:00,
2013-03-23 18:53:00,46.7,41.5,29.89,ENE,75,0.0,0.0,82,0.00,,---,0.41,VWS V14.01,2013-03-23 22:53:00,
2013-03-23 18:58:00,46.7,41.5,29.89,ENE,75,0.0,0.0,82,0.00,,---,0.41,VWS V14.01,2013-03-23 22:58:00,
2013-03-23 19:00:00,46.7,41.5,29.90,ENE,75,0.0,0.0,82,0.00,,---,0.41,VWS V14.01,2013-03-23 23:00:00,
2013-03-23 19:03:00,46.7,41.5,29.91,ENE,75,0.0,0.0,82,0.00,,---,0.41,VWS V14.01,2013-03-23 23:03:00,
2013-03-23 19:08:00,46.7,41.5,29.91,ENE,75,0.0,0.0,82,0.00,,---,0.41,VWS V14.01,2013-03-23 23:08:00,
2013-03-23 19:13:00,46.7,41.5,29.93,ENE,75,0.0,0.0,82,0.00,,---,0.41,VWS V14.01,2013-03-23 23:13:00,
2013-03-23 19:18:00,46.7,41.5,29.93,ENE,75,0.0,0.0,82,0.00,,---,0.41,VWS V14.01,2013-03-23 23:18:00,
2013-03-23 19:23:00,46.7,41.5,29.93,ENE,75,0.0,0.0,82,0.00,,---,0.41,VWS V14.01,2013-03-23 23:23:00,
2013-03-23 19:28:00,46.7,41.5,29.93,ENE,75,0.0,0.0,82,0.00,,---,0.41,VWS V14.01,2013-03-23 23:28:00,
2013-03-23 19:30:00,46.7,41.5,29.92,ENE,75,0.0,0.0,82,0.00,,---,0.41,VWS V14.01,2013-03-23 23:30:00,
2013-03-23 19:33:00,46.7,41.5,29.93,ENE,75,0.0,0.0,82,0.00,,---,0.41,VWS V14.01,2013-03-23 23:33:00,
2013-03-23 19:38:00,46.7,41.5,29.94,ENE,75,0.0,0.0,82,0.00,,---,0.41,VWS V14.01,2013-03-23 23:38:00,
2013-03-23 19:43:00,46.7,41.5,29.93,ENE,75,0.0,0.0,82,0.00,,---,0.41,VWS V14.01,2013-03-23 23:43:00,
2013-03-23 19:48:00,46.7,41.5,29.93,ENE,75,0.0,0.0,82,0.00,,---,0.41,VWS V14.01,2013-03-23 23:48:00,
2013-03-23 19:53:00,46.7,41.5,29.93,ENE,75,0.0,0.0,82,0.00,,---,0.41,VWS V14.01,2013-03-23 23:53:00,
2013-03-23 19:58:00,46.7,41.5,29.93,ENE,75,0.0,0.0,82,0.00,,---,0.41,VWS V14.01,2013-03-23 23:58:00,
2013-03-23 20:00:00,46.7,41.5,29.93,ENE,75,0.0,0.0,82,0.00,,---,0.41,VWS V14.01,2013-03-24 00:00:00,
2013-03-23 20:03:00,46.7,41.5,29.94,ENE,75,0.0,0.0,82,0.00,,---,0.41,VWS V14.01,2013-03-24 00:03:00,
2013-03-23 20:08:00,46.7,41.5,29.94,ENE,75,0.0,0.0,82,0.00,,---,0.41,VWS V14.01,2013-03-24 00:08:00,
2013-03-23 20:13:00,46.7,41.5,29.94,ENE,75,0.0,0.0,82,0.00,,---,0.41,VWS V14.01,2013-03-24 00:13:00,
2013-03-23 20:18:00,46.7,41.5,29.94,ENE,75,0.0,0.0,82,0.00,,---,0.41,VWS V14.01,2013-03-24 00:18:00,
2013-03-23 20:23:00,46.7,41.5,29.95,ENE,75,0.0,0.0,82,0.00,,---,0.41,VWS V14.01,2013-03-24 00:23:00,
2013-03-23 20:28:00,46.7,41.5,29.95,ENE,75,0.0,0.0,82,0.00,,---,0.41,VWS V14.01,2013-03-24 00:28:00,
2013-03-23 20:30:00,46.7,41.5,29.95,ENE,75,0.0,0.0,82,0.00,,---,0.41,VWS V14.01,2013-03-24 00:30:00,
2013-03-23 20:33:00,46.7,41.5,29.95,ENE,75,0.0,0.0,82,0.00,,---,0.41,VWS V14.01,2013-03-24 00:33:00,
2013-03-23 20:38:00,50.1,42.5,29.95,North,9,0.0,0.0,75,0.00,,---,0.41,VWS V14.01,2013-03-24 00:38:00,
2013-03-23 20:43:00,50.0,42.7,29.95,North,9,0.0,0.0,76,0.00,,---,0.41,VWS V14.01,2013-03-24 00:43:00,
2013-03-23 20:48:00,50.0,42.7,29.95,North,9,0.0,0.0,76,0.00,,---,0.41,VWS V14.01,2013-03-24 00:48:00,
2013-03-23 20:53:00,49.9,42.7,29.95,North,9,0.0,0.0,76,0.00,,---,0.41,VWS V14.01,2013-03-24 00:53:00,
2013-03-23 20:58:00,49.9,42.7,29.95,North,9,0.0,0.0,76,0.00,,---,0.41,VWS V14.01,2013-03-24 00:58:00,
2013-03-23 21:00:00,49.8,42.5,29.95,North,9,0.0,0.0,76,0.00,,---,0.41,VWS V14.01,2013-03-24 01:00:00,
2013-03-23 21:03:00,49.8,42.5,29.95,North,9,0.0,0.0,76,0.00,,---,0.41,VWS V14.01,2013-03-24 01:03:00,
2013-03-23 21:08:00,49.8,42.5,29.96,North,9,0.0,0.0,76,0.00,,---,0.41,VWS V14.01,2013-03-24 01:08:00,
2013-03-23 21:13:00,49.7,42.8,29.95,North,9,0.0,0.0,77,0.00,,---,0.41,VWS V14.01,2013-03-24 01:13:00,
2013-03-23 21:18:00,49.7,42.8,29.95,North,9,0.0,0.0,77,0.00,,---,0.41,VWS V14.01,2013-03-24 01:18:00,
2013-03-23 21:23:00,49.7,42.8,29.95,North,9,0.0,0.0,77,0.00,,---,0.41,VWS V14.01,2013-03-24 01:23:00,
2013-03-23 21:28:00,49.7,42.8,29.95,North,10,0.0,0.0,77,0.00,,---,0.41,VWS V14.01,2013-03-24 01:28:00,
2013-03-23 21:30:00,49.7,42.8,29.95,NNE,12,0.0,0.0,77,0.00,,---,0.41,VWS V14.01,2013-03-24 01:30:00,
2013-03-23 21:33:00,49.7,42.8,29.94,NNE,24,0.0,0.0,77,0.00,,---,0.41,VWS V14.01,2013-03-24 01:33:00,
2013-03-23 21:38:00,49.7,42.8,29.94,NNE,28,0.0,0.0,77,0.00,,---,0.41,VWS V14.01,2013-03-24 01:38:00,
2013-03-23 21:43:00,49.5,42.6,29.94,NNE,28,0.0,0.0,77,0.00,,---,0.41,VWS V14.01,2013-03-24 01:43:00,
2013-03-23 21:48:00,49.4,42.5,29.94,NNE,25,0.0,0.0,77,0.00,,---,0.41,VWS V14.01,2013-03-24 01:48:00,
2013-03-23 21:53:00,49.3,42.4,29.93,NNE,25,0.0,0.0,77,0.00,,---,0.41,VWS V14.01,2013-03-24 01:53:00,
2013-03-23 21:58:00,49.1,42.2,29.94,NNE,25,0.0,0.0,77,0.00,,---,0.41,VWS V14.01,2013-03-24 01:58:00,
2013-03-23 22:00:00,49.1,42.5,29.94,NNE,25,0.0,0.0,78,0.00,,---,0.41,VWS V14.01,2013-03-24 02:00:00,
2013-03-23 22:03:00,49.1,42.2,29.94,NNE,25,0.0,0.0,77,0.00,,---,0.41,VWS V14.01,2013-03-24 02:03:00,
2013-03-23 22:08:00,49.0,42.5,29.93,NNE,25,0.0,0.0,78,0.00,,---,0.41,VWS V14.01,2013-03-24 02:08:00,
2013-03-23 22:13:00,49.0,42.5,29.92,NNE,25,0.0,0.0,78,0.00,,---,0.41,VWS V14.01,2013-03-24 02:13:00,
2013-03-23 22:18:00,48.9,42.3,29.92,NNE,25,0.0,0.0,78,0.00,,---,0.41,VWS V14.01,2013-03-24 02:18:00,
2013-03-23 22:23:00,48.8,42.6,29.92,NNE,25,0.0,0.0,79,0.00,,---,0.41,VWS V14.01,2013-03-24 02:23:00,
2013-03-23 22:28:00,48.8,42.6,29.92,NNE,25,0.0,0.0,79,0.00,,---,0.41,VWS V14.01,2013-03-24 02:28:00,
2013-03-23 22:30:00,48.9,42.7,29.91,NNE,25,0.0,0.0,79,0.00,,---,0.41,VWS V14.01,2013-03-24 02:30:00,
2013-03-23 22:33:00,48.9,42.7,29.92,NNE,25,0.0,0.0,79,0.00,,---,0.41,VWS V14.01,2013-03-24 02:33:00,
2013-03-23 22:38:00,48.9,42.7,29.92,NNE,25,0.0,0.0,79,0.00,,---,0.41,VWS V14.01,2013-03-24 02:38:00,
2013-03-23 22:43:00,49.0,42.8,29.91,NNE,25,0.0,0.0,79,0.00,,---,0.41,VWS V14.01,2013-03-24 02:43:00,
2013-03-23 22:48:00,49.1,42.9,29.91,NNE,25,0.0,0.0,79,0.00,,---,0.41,VWS V14.01,2013-03-24 02:48:00,
2013-03-23 22:53:00,49.4,43.2,29.91,NNE,25,0.0,0.0,79,0.00,,---,0.41,VWS V14.01,2013-03-24 02:53:00,
2013-03-23 22:58:00,49.8,43.6,29.91,NE,51,0.0,0.0,79,0.00,,---,0.41,VWS V14.01,2013-03-24 02:58:00,
2013-03-23 23:00:00,50.0,44.1,29.91,NE,52,0.0,0.0,80,0.00,,---,0.41,VWS V14.01,2013-03-24 03:00:00,
2013-03-23 23:03:00,50.3,44.4,29.91,East,92,0.0,0.0,80,0.00,,---,0.41,VWS V14.01,2013-03-24 03:03:00,
2013-03-23 23:08:00,51.3,45.0,29.90,East,97,0.0,0.0,79,0.00,,---,0.41,VWS V14.01,2013-03-24 03:08:00,
2013-03-23 23:13:00,51.9,44.9,29.90,ESE,106,0.0,0.0,77,0.00,,---,0.41,VWS V14.01,2013-03-24 03:13:00,
2013-03-23 23:18:00,52.2,44.9,29.90,SE,130,0.0,0.0,76,0.00,,---,0.41,VWS V14.01,2013-03-24 03:18:00,
2013-03-23 23:23:00,52.3,44.6,29.90,ESE,117,0.0,0.0,75,0.00,,---,0.41,VWS V14.01,2013-03-24 03:23:00,
2013-03-23 23:28:00,52.4,44.7,29.90,ESE,105,0.0,0.0,75,0.00,,---,0.41,VWS V14.01,2013-03-24 03:28:00,
2013-03-23 23:30:00,52.4,44.7,29.90,ESE,113,0.0,0.0,75,0.00,,---,0.41,VWS V14.01,2013-03-24 03:30:00,
2013-03-23 23:33:00,52.4,44.4,29.90,SE,126,0.0,0.0,74,0.00,,---,0.41,VWS V14.01,2013-03-24 03:33:00,
2013-03-23 23:38:00,52.5,44.5,29.90,ESE,111,0.0,0.0,74,0.00,,---,0.41,VWS V14.01,2013-03-24 03:38:00,
2013-03-23 23:43:00,52.6,44.6,29.89,SE,133,0.0,0.0,74,0.00,,---,0.41,VWS V14.01,2013-03-24 03:43:00,
2013-03-23 23:48:00,52.7,44.3,29.89,East,99,0.0,0.0,73,0.00,,---,0.41,VWS V14.01,2013-03-24 03:48:00,
2013-03-23 23:53:00,52.7,44.3,29.89,ESE,107,0.0,0.0,73,0.00,,---,0.41,VWS V14.01,2013-03-24 03:53:00,
2013-03-23 23:58:00,52.7,43.9,29.88,ESE,117,0.0,0.0,72,0.00,,---,0.41,VWS V14.01,2013-03-24 03:58:00,